Time;durP1;ratioP1;P1;durP2;ratioP2;P2;SDS_P1;SDS_P2;PMS_P1;PMS_P2;Temp;Humidity;BMP_temperature;BMP_pressure;BME280_temperature;BME280_humidity;BME280_pressure;Samples;Min_cycle;Max_cycle;Signal;HPM_P1;HPM_P2
2022/01/21 00:00:25;;;;;;;10.05;3.47;;;1.30;99.90;;;;;;5076092;27;88680;-29
2022/01/21 00:02:51;;;;;;;8.60;3.15;;;1.30;99.90;;;;;;5076096;27;90514;-31
2022/01/21 00:05:18;;;;;;;10.05;2.40;;;1.20;99.90;;;;;;5074832;27;88012;-31
2022/01/21 00:07:44;;;;;;;6.05;3.22;;;1.20;99.90;;;;;;5076016;27;88987;-33
2022/01/21 00:10:10;;;;;;;8.00;2.95;;;1.20;99.90;;;;;;5075506;27;88108;-29
2022/01/21 00:12:37;;;;;;;15.05;3.80;;;1.20;99.90;;;;;;5058932;27;90237;-29
2022/01/21 00:15:07;;;;;;;12.27;3.22;;;1.20;99.90;;;;;;5078456;27;89680;-30
2022/01/21 00:17:33;;;;;;;7.18;3.13;;;1.20;99.90;;;;;;5078903;27;88447;-30
2022/01/21 00:30:56;;;;;;;7.53;3.85;;;1.30;99.90;;;;;;5078539;27;87599;-29
2022/01/21 00:33:22;;;;;;;12.70;4.05;;;1.20;99.90;;;;;;5078549;27;89659;-32
2022/01/21 00:35:47;;;;;;;13.25;3.53;;;1.20;99.90;;;;;;5078639;27;89487;-30
2022/01/21 00:38:14;;;;;;;9.82;3.88;;;1.20;99.90;;;;;;5078356;27;87898;-33
2022/01/21 00:40:40;;;;;;;15.77;5.07;;;1.20;99.90;;;;;;5078793;27;88427;-31
2022/01/21 00:43:14;;;;;;;13.85;4.45;;;1.20;99.90;;;;;;5078171;27;90264;-31
2022/01/21 00:45:40;;;;;;;9.80;3.90;;;1.20;99.90;;;;;;5077823;27;89602;-30
2022/01/21 00:48:06;;;;;;;10.68;3.63;;;1.20;99.90;;;;;;5078592;27;88171;-31
2022/01/21 00:50:32;;;;;;;15.18;4.57;;;1.20;99.90;;;;;;5078946;27;88016;-29
2022/01/21 00:52:58;;;;;;;15.50;5.40;;;1.30;99.90;;;;;;5078077;27;90636;-31
2022/01/21 00:55:24;;;;;;;11.10;3.63;;;1.30;99.90;;;;;;5078266;27;89735;-30
2022/01/21 00:57:49;;;;;;;19.40;5.32;;;1.30;99.90;;;;;;5077818;27;87935;-32
2022/01/21 01:00:15;;;;;;;6.10;3.28;;;1.40;99.90;;;;;;5077760;27;88597;-29
2022/01/21 01:02:41;;;;;;;17.67;4.50;;;1.40;99.90;;;;;;5078932;27;88900;-32
2022/01/21 01:05:09;;;;;;;13.63;4.30;;;1.50;99.90;;;;;;5077725;27;89653;-31
2022/01/21 01:07:35;;;;;;;7.13;3.73;;;1.50;99.90;;;;;;5059868;27;88454;-30
2022/01/21 01:10:02;;;;;;;13.55;4.07;;;1.60;99.90;;;;;;5077902;27;87990;-31
2022/01/21 01:12:44;;;;;;;12.00;4.37;;;1.60;99.90;;;;;;5077719;27;90239;-32
2022/01/21 01:20:38;;;;;;;5.95;3.25;;;1.70;99.90;;;;;;5077635;27;87547;-30
2022/01/21 01:23:19;;;;;;;11.63;3.72;;;1.70;99.90;;;;;;5077542;27;90174;-31
2022/01/21 01:28:29;;;;;;;10.25;4.10;;;1.80;99.90;;;;;;5078405;27;87941;-30
2022/01/21 01:30:54;;;;;;;12.77;3.00;;;1.80;99.90;;;;;;5077606;27;87748;-29
2022/01/21 01:33:24;;;;;;;9.15;3.38;;;1.80;99.90;;;;;;5077191;27;90358;-30
2022/01/21 01:35:50;;;;;;;6.57;2.90;;;1.80;99.90;;;;;;5077187;27;90335;-31
2022/01/21 01:40:59;;;;;;;8.60;2.60;;;1.90;99.90;;;;;;5077963;27;88039;-31
2022/01/21 01:51:23;;;;;;;6.43;2.03;;;1.80;99.90;;;;;;5077347;27;87618;-29
2022/01/21 01:53:55;;;;;;;7.60;3.15;;;1.80;99.90;;;;;;5077518;27;90013;-32
2022/01/21 01:56:27;;;;;;;9.95;2.38;;;1.80;99.90;;;;;;5076847;27;90200;-30
2022/01/21 01:58:53;;;;;;;8.75;2.42;;;1.70;99.90;;;;;;5077444;27;87510;-30
2022/01/21 02:01:19;;;;;;;7.75;3.38;;;1.80;99.90;;;;;;5076812;27;87658;-31
2022/01/21 02:03:44;;;;;;;15.13;3.50;;;1.90;99.90;;;;;;5076902;27;90588;-31
2022/01/21 02:06:10;;;;;;;10.80;2.75;;;1.90;99.90;;;;;;5058163;27;89624;-31
2022/01/21 02:08:36;;;;;;;7.07;2.97;;;1.80;99.90;;;;;;5077323;27;88005;-29
2022/01/21 02:11:02;;;;;;;8.05;3.28;;;1.80;99.90;;;;;;5058821;27;87636;-29
2022/01/21 02:13:32;;;;;;;12.48;2.90;;;1.80;99.90;;;;;;5077270;27;90454;-30
2022/01/21 02:16:08;;;;;;;16.25;3.63;;;1.80;99.90;;;;;;5077226;27;88308;-30
2022/01/21 02:24:01;;;;;;;13.52;2.75;;;1.70;99.90;;;;;;5076911;27;90148;-30
2022/01/21 02:26:27;;;;;;;;;;;1.70;99.90;;;;;;5077170;27;90078;-29
2022/01/21 02:28:54;;;;;;;11.32;4.00;;;1.70;99.90;;;;;;5078467;27;87923;-33
2022/01/21 02:31:20;;;;;;;7.28;2.60;;;1.70;99.90;;;;;;5076777;27;87557;-29
2022/01/21 02:33:45;;;;;;;15.93;3.38;;;1.70;99.90;;;;;;5076679;27;90914;-29
2022/01/21 02:36:11;;;;;;;10.02;3.33;;;1.60;99.90;;;;;;5075992;27;90127;-28
2022/01/21 02:38:37;;;;;;;9.70;3.38;;;1.60;99.90;;;;;;5077068;27;87609;-32
2022/01/21 02:41:02;;;;;;;15.70;4.05;;;1.60;99.90;;;;;;5076459;27;88058;-29
2022/01/21 02:43:28;;;;;;;12.18;3.60;;;1.60;99.90;;;;;;5076713;27;89358;-29
2022/01/21 02:45:53;;;;;;;8.77;3.15;;;1.60;99.90;;;;;;5076343;27;89564;-31
2022/01/21 02:48:21;;;;;;;10.13;3.08;;;1.60;99.90;;;;;;5076376;27;87669;-29
2022/01/21 02:50:46;;;;;;;11.23;3.83;;;1.60;99.90;;;;;;5076463;27;87663;-30
2022/01/21 02:55:58;;;;;;;14.68;3.22;;;1.70;99.90;;;;;;5033551;27;89434;-28
2022/01/21 02:58:25;;;;;;;7.75;3.17;;;1.70;99.90;;;;;;5076224;27;88448;-31
2022/01/21 03:00:51;;;;;;;8.45;2.90;;;1.70;99.90;;;;;;5076131;27;88137;-30
2022/01/21 03:03:17;;;;;;;5.03;2.05;;;1.80;99.90;;;;;;5057906;27;90024;-34
2022/01/21 03:05:43;;;;;;;9.65;2.25;;;1.80;99.90;;;;;;5076285;27;89565;-31
2022/01/21 03:08:08;;;;;;;10.35;2.58;;;1.80;99.90;;;;;;5076548;27;87557;-29
2022/01/21 03:10:34;;;;;;;6.15;2.30;;;1.70;99.90;;;;;;5076129;27;87613;-30
2022/01/21 03:12:59;;;;;;;7.95;2.80;;;1.70;99.90;;;;;;5075944;27;90076;-29
2022/01/21 03:15:25;;;;;;;8.20;1.85;;;1.80;99.90;;;;;;5075556;27;89742;-32
2022/01/21 03:17:51;;;;;;;5.53;1.95;;;1.70;99.90;;;;;;5075985;27;88117;-29
2022/01/21 03:20:17;;;;;;;11.52;2.97;;;1.70;99.90;;;;;;5076298;27;87948;-31
2022/01/21 03:22:42;;;;;;;4.95;2.28;;;1.60;99.90;;;;;;5076131;27;90534;-29
2022/01/21 03:25:08;;;;;;;4.25;2.17;;;1.60;99.90;;;;;;5075358;27;88964;-29
2022/01/21 03:27:35;;;;;;;8.57;2.67;;;1.60;99.90;;;;;;5075727;27;88160;-29
2022/01/21 03:30:03;;;;;;;7.57;2.55;;;1.60;99.90;;;;;;5057908;27;87672;-31
2022/01/21 03:32:30;;;;;;;3.05;1.70;;;1.60;99.90;;;;;;5075795;27;90118;-31
2022/01/21 03:34:56;;;;;;;6.68;1.90;;;1.60;99.90;;;;;;5075448;27;89565;-31
2022/01/21 03:37:21;;;;;;;6.65;2.10;;;1.60;99.90;;;;;;5057785;27;87690;-30
2022/01/21 03:39:47;;;;;;;5.00;2.13;;;1.60;99.90;;;;;;5075743;27;87522;-30
2022/01/21 03:42:12;;;;;;;5.80;1.50;;;1.60;99.90;;;;;;5075650;27;90136;-29
2022/01/21 03:44:38;;;;;;;8.40;2.53;;;1.70;99.90;;;;;;5075119;27;89115;-30
2022/01/21 03:47:04;;;;;;;7.15;1.55;;;1.60;99.90;;;;;;5076982;27;88638;-29
2022/01/21 03:49:37;;;;;;;4.47;2.05;;;1.60;99.90;;;;;;5079952;27;87617;-31
2022/01/21 03:52:04;;;;;;;6.70;1.75;;;1.70;99.90;;;;;;5079523;27;90381;-30
2022/01/21 03:54:29;;;;;;;4.47;1.23;;;1.70;99.90;;;;;;5079416;27;90813;-30
2022/01/21 03:56:55;;;;;;;5.38;1.60;;;1.80;99.90;;;;;;5079921;27;87847;-30
2022/01/21 03:59:21;;;;;;;4.50;1.85;;;1.80;99.90;;;;;;5079788;27;89396;-32
2022/01/21 04:01:46;;;;;;;7.25;1.52;;;1.80;99.90;;;;;;5079400;27;90021;-31
2022/01/21 04:04:12;;;;;;;7.28;1.63;;;1.80;99.90;;;;;;5078379;27;89687;-29
2022/01/21 04:06:37;;;;;;;5.78;1.98;;;1.80;99.90;;;;;;5079167;27;87541;-30
2022/01/21 04:09:03;;;;;;;4.35;1.45;;;1.80;99.90;;;;;;5079182;27;88041;-29
2022/01/21 04:11:29;;;;;;;5.78;1.42;;;1.80;99.90;;;;;;5078664;27;90002;-30
2022/01/21 04:13:55;;;;;;;8.45;2.00;;;1.90;99.90;;;;;;5079041;27;89547;-29
2022/01/21 04:16:21;;;;;;;9.88;2.13;;;1.90;99.90;;;;;;5079091;27;88161;-30
2022/01/21 04:18:46;;;;;;;12.77;2.38;;;1.90;99.90;;;;;;5079046;27;87534;-29
2022/01/21 04:21:12;;;;;;;2.83;1.90;;;1.90;99.90;;;;;;5078925;27;90198;-30
2022/01/21 04:23:38;;;;;;;8.82;1.98;;;1.80;99.90;;;;;;5078896;27;89231;-31
2022/01/21 04:26:04;;;;;;;13.18;2.08;;;1.80;99.90;;;;;;5078525;27;87656;-31
2022/01/21 04:28:29;;;;;;;5.82;1.27;;;1.80;99.90;;;;;;5078553;27;87619;-30
2022/01/21 04:30:56;;;;;;;4.32;1.88;;;1.80;99.90;;;;;;5078352;27;90236;-30
2022/01/21 04:33:21;;;;;;;4.30;1.75;;;1.70;99.90;;;;;;5078394;27;89321;-29
2022/01/21 04:35:47;;;;;;;8.20;2.58;;;1.70;99.90;;;;;;5078379;27;87697;-29
2022/01/21 04:38:16;;;;;;;8.15;1.77;;;1.70;99.90;;;;;;5079063;27;88398;-32
2022/01/21 04:40:50;;;;;;;11.05;1.92;;;1.70;99.90;;;;;;5078740;27;90525;-30
2022/01/21 04:48:44;;;;;;;5.97;1.50;;;1.60;99.90;;;;;;5083283;27;88809;-29
2022/01/21 04:51:20;;;;;;;5.43;2.28;;;1.70;99.90;;;;;;5086348;27;89218;-29
2022/01/21 04:53:48;;;;;;;8.00;1.30;;;1.70;99.90;;;;;;5083598;27;89921;-30
2022/01/21 04:56:14;;;;;;;6.95;2.00;;;1.70;99.90;;;;;;5085645;27;87669;-30
2022/01/21 04:58:41;;;;;;;4.28;1.70;;;1.70;99.90;;;;;;5087113;27;87629;-29
2022/01/21 05:01:07;;;;;;;8.55;1.88;;;1.70;99.90;;;;;;5084390;27;90175;-31
2022/01/21 05:03:34;;;;;;;8.95;2.20;;;1.70;99.90;;;;;;5085366;27;89865;-29
2022/01/21 05:06:01;;;;;;;4.05;2.05;;;1.70;99.90;;;;;;5087263;27;87527;-30
2022/01/21 05:08:32;;;;;;;9.23;1.75;;;1.70;99.90;;;;;;5085683;27;87548;-30
2022/01/21 05:11:00;;;;;;;9.38;1.77;;;1.70;99.90;;;;;;5085275;27;90071;-33
2022/01/21 05:13:28;;;;;;;6.45;1.77;;;1.70;99.90;;;;;;5086101;27;89650;-29
2022/01/21 05:18:46;;;;;;;8.00;2.17;;;1.60;99.90;;;;;;5054884;27;87735;-28
2022/01/21 05:21:11;;;;;;;8.13;2.58;;;1.60;99.90;;;;;;5080391;27;90241;-29
2022/01/21 05:23:37;;;;;;;7.25;2.22;;;1.60;99.90;;;;;;5082999;27;89818;-33
2022/01/21 05:26:02;;;;;;;7.03;1.92;;;1.50;99.90;;;;;;5085822;27;89501;-28
2022/01/21 05:28:28;;;;;;;6.43;1.98;;;1.50;99.90;;;;;;5065784;27;88819;-32
2022/01/21 05:30:53;;;;;;;2.60;1.10;;;1.50;99.90;;;;;;5067947;27;90080;-29
2022/01/21 05:33:19;;;;;;;8.57;2.22;;;1.50;99.90;;;;;;5069212;27;89179;-28
2022/01/21 05:35:45;;;;;;;4.50;2.17;;;1.50;99.90;;;;;;5078593;27;87602;-29
2022/01/21 05:38:10;;;;;;;10.38;2.60;;;1.50;99.90;;;;;;5077660;27;87536;-29
2022/01/21 05:40:37;;;;;;;6.28;2.50;;;1.40;99.90;;;;;;5090585;27;90210;-33
2022/01/21 05:43:03;;;;;;;9.13;2.05;;;1.40;99.90;;;;;;5074298;27;88375;-29
2022/01/21 05:48:13;;;;;;;11.55;2.70;;;1.40;99.90;;;;;;5080777;27;87577;-29
2022/01/21 05:50:39;;;;;;;13.38;2.45;;;1.40;99.90;;;;;;5083887;27;88513;-31
2022/01/21 05:53:08;;;;;;;12.60;2.15;;;1.40;99.90;;;;;;5077423;27;88560;-33
2022/01/21 05:55:39;;;;;;;8.15;2.85;;;1.50;99.90;;;;;;5070653;27;88298;-30
2022/01/21 05:58:06;;;;;;;8.43;3.38;;;1.50;99.90;;;;;;5068882;27;87622;-35
2022/01/21 06:00:32;;;;;;;13.40;3.33;;;1.50;99.90;;;;;;5070979;27;89899;-30
2022/01/21 06:02:57;;;;;;;8.05;2.05;;;1.50;99.90;;;;;;5071076;27;89558;-30
2022/01/21 06:05:23;;;;;;;6.82;2.10;;;1.50;99.90;;;;;;5070251;27;89009;-29
2022/01/21 06:07:49;;;;;;;12.88;3.63;;;1.40;99.90;;;;;;5069694;27;88373;-32
2022/01/21 06:10:14;;;;;;;9.57;2.72;;;1.40;99.90;;;;;;5068664;27;90570;-30
2022/01/21 06:12:40;;;;;;;10.35;2.15;;;1.40;99.90;;;;;;5071143;27;89751;-30
2022/01/21 06:15:06;;;;;;;14.82;3.30;;;1.40;99.90;;;;;;5071095;27;87569;-31
2022/01/21 06:17:31;;;;;;;11.30;2.65;;;1.50;99.90;;;;;;5070486;27;87655;-31
2022/01/21 06:19:57;;;;;;;15.95;3.72;;;1.50;99.90;;;;;;5071260;27;90060;-30
2022/01/21 06:22:23;;;;;;;7.97;3.42;;;1.50;99.90;;;;;;5070787;27;89680;-31
2022/01/21 06:24:48;;;;;;;11.40;2.65;;;1.50;99.90;;;;;;5070911;27;87951;-32
2022/01/21 06:27:15;;;;;;;5.40;2.40;;;1.50;99.90;;;;;;5071087;27;88519;-30
2022/01/21 06:29:41;;;;;;;6.63;2.75;;;1.50;99.90;;;;;;5071161;27;88890;-33
2022/01/21 06:32:07;;;;;;;7.30;3.28;;;1.50;99.90;;;;;;5070586;27;89473;-32
2022/01/21 06:34:32;;;;;;;4.78;2.22;;;1.50;99.90;;;;;;5070805;27;88138;-31
2022/01/21 06:36:58;;;;;;;13.18;3.40;;;1.60;99.90;;;;;;5071326;27;88007;-28
2022/01/21 06:39:25;;;;;;;8.30;2.28;;;1.60;99.90;;;;;;5070530;27;89554;-30
2022/01/21 06:41:51;;;;;;;14.82;2.72;;;1.60;99.90;;;;;;5070934;27;89624;-30
2022/01/21 06:44:17;;;;;;;12.90;3.70;;;1.60;99.90;;;;;;5069782;27;87590;-29
2022/01/21 06:46:44;;;;;;;7.57;2.25;;;1.60;99.90;;;;;;5070871;27;88791;-31
2022/01/21 06:49:09;;;;;;;15.02;3.28;;;1.60;99.90;;;;;;5071187;27;90803;-31
2022/01/21 06:51:35;;;;;;;7.47;2.60;;;1.70;99.90;;;;;;5070520;27;89478;-30
2022/01/21 06:54:01;;;;;;;7.18;2.75;;;1.70;99.90;;;;;;5070311;27;87547;-30
2022/01/21 06:56:26;;;;;;;8.60;3.10;;;1.70;99.90;;;;;;5067320;27;87681;-32
2022/01/21 06:58:52;;;;;;;7.95;3.00;;;1.80;99.90;;;;;;5070402;27;90107;-32
2022/01/21 07:01:17;;;;;;;7.90;3.13;;;1.80;99.90;;;;;;5070114;27;89586;-31
2022/01/21 07:03:43;;;;;;;6.78;2.63;;;1.80;99.90;;;;;;5069949;27;88756;-30
2022/01/21 07:06:09;;;;;;;11.70;3.03;;;1.90;99.90;;;;;;5068816;27;87685;-30
2022/01/21 07:08:35;;;;;;;8.30;2.70;;;1.90;99.90;;;;;;5070140;27;90253;-32
2022/01/21 07:11:00;;;;;;;8.13;3.13;;;1.90;99.90;;;;;;5070336;27;89960;-33
2022/01/21 07:13:26;;;;;;;8.75;2.92;;;1.90;99.90;;;;;;5070350;27;87683;-31
2022/01/21 07:15:52;;;;;;;10.05;3.03;;;2.00;99.90;;;;;;4942849;27;89030;-32
2022/01/21 07:18:17;;;;;;;10.20;3.15;;;2.00;99.90;;;;;;5066094;27;90280;-32
2022/01/21 07:20:43;;;;;;;7.15;2.65;;;2.00;99.90;;;;;;5070741;27;88351;-30
2022/01/21 07:23:09;;;;;;;12.77;3.72;;;2.00;99.90;;;;;;5070949;27;87600;-32
2022/01/21 07:25:36;;;;;;;8.45;2.80;;;2.00;99.90;;;;;;5071578;27;88597;-33
2022/01/21 07:28:02;;;;;;;6.93;3.42;;;2.00;99.90;;;;;;5070883;27;90196;-33
2022/01/21 07:30:28;;;;;;;12.82;3.33;;;2.00;99.90;;;;;;5070321;27;89401;-34
2022/01/21 07:32:53;;;;;;;6.70;2.88;;;1.90;99.90;;;;;;5070934;27;87579;-31
2022/01/21 07:35:20;;;;;;;13.82;3.30;;;2.00;99.90;;;;;;5068199;27;87614;-34
2022/01/21 07:37:45;;;;;;;13.25;2.72;;;1.90;99.90;;;;;;4997799;27;90297;-30
2022/01/21 07:40:12;;;;;;;12.23;3.40;;;2.00;99.90;;;;;;5070338;27;89290;-31
2022/01/21 07:42:37;;;;;;;10.63;2.85;;;2.00;99.90;;;;;;5070069;27;87509;-31
2022/01/21 07:45:04;;;;;;;10.05;3.13;;;2.00;99.90;;;;;;5070378;27;87653;-31
2022/01/21 07:47:29;;;;;;;9.98;3.13;;;1.90;99.90;;;;;;5070171;27;92167;-29
2022/01/21 07:49:55;;;;;;;10.02;2.75;;;1.90;99.90;;;;;;5070196;27;89712;-30
2022/01/21 07:52:20;;;;;;;12.27;2.90;;;1.90;99.90;;;;;;5070234;27;87851;-33
2022/01/21 07:54:46;;;;;;;7.57;3.25;;;1.90;99.90;;;;;;5071252;27;88555;-31
2022/01/21 07:57:12;;;;;;;12.98;3.25;;;1.90;99.90;;;;;;5069440;27;90203;-33
2022/01/21 07:59:38;;;;;;;7.75;2.45;;;1.90;99.90;;;;;;5070365;27;89704;-31
2022/01/21 08:02:05;;;;;;;4.20;2.30;;;1.90;99.90;;;;;;5070551;27;87580;-32
2022/01/21 08:04:30;;;;;;;7.93;2.70;;;1.90;99.90;;;;;;5070288;27;87504;-31
2022/01/21 08:06:56;;;;;;;10.90;3.03;;;2.00;99.90;;;;;;5069258;27;90833;-33
2022/01/21 08:09:25;;;;;;;10.10;3.10;;;2.00;99.90;;;;;;5063657;27;89747;-32
2022/01/21 08:11:51;;;;;;;;;;;2.00;99.90;;;;;;5032349;27;87641;-30
2022/01/21 08:14:16;;;;;;;9.18;3.13;;;2.10;99.90;;;;;;5050591;27;87689;-32
2022/01/21 08:16:42;;;;;;;8.82;3.10;;;2.10;99.90;;;;;;5049412;27;89815;-33
2022/01/21 08:19:07;;;;;;;11.32;2.85;;;2.10;99.90;;;;;;5049234;27;89451;-32
2022/01/21 08:21:33;;;;;;;9.93;2.47;;;2.10;99.90;;;;;;5048151;27;88402;-31
2022/01/21 08:23:58;;;;;;;9.55;2.45;;;2.10;99.90;;;;;;5049656;27;87985;-30
2022/01/21 08:26:27;;;;;;;5.35;3.28;;;2.10;99.90;;;;;;5049444;27;90910;-32
2022/01/21 08:28:54;;;;;;;7.70;2.95;;;2.10;99.90;;;;;;5049269;27;89768;-35
2022/01/21 08:31:20;;;;;;;13.90;2.88;;;2.10;99.90;;;;;;5030972;27;88241;-31
2022/01/21 08:33:46;;;;;;;6.55;2.92;;;2.20;99.90;;;;;;5051227;27;87669;-32
2022/01/21 08:36:12;;;;;;;6.55;2.85;;;2.30;99.90;;;;;;5052950;27;90314;-30
2022/01/21 08:38:38;;;;;;;8.43;2.10;;;2.30;99.90;;;;;;5052293;27;89525;-30
2022/01/21 08:41:05;;;;;;;12.80;3.20;;;2.40;99.90;;;;;;5052379;27;87616;-34
2022/01/21 08:43:30;;;;;;;6.85;3.05;;;2.40;99.90;;;;;;5068936;27;89058;-31
2022/01/21 08:45:56;;;;;;;10.07;3.15;;;2.50;99.90;;;;;;5070391;27;89341;-35
2022/01/21 08:48:22;;;;;;;12.32;2.88;;;2.50;99.90;;;;;;5070205;27;89593;-31
2022/01/21 08:50:48;;;;;;;6.45;2.65;;;2.60;99.90;;;;;;5070759;27;87580;-30
2022/01/21 08:55:59;;;;;;;8.93;2.80;;;2.60;99.90;;;;;;5070189;27;90227;-30
2022/01/21 08:58:25;;;;;;;14.05;3.70;;;2.60;99.90;;;;;;5074194;27;88750;-34
2022/01/21 09:00:51;;;;;;;12.55;3.20;;;2.80;99.90;;;;;;5075757;27;88017;-31
2022/01/21 09:03:17;;;;;;;11.27;2.63;;;2.90;99.90;;;;;;5075710;27;88807;-34
2022/01/21 09:05:48;;;;;;;7.30;2.40;;;3.00;99.90;;;;;;5075607;27;90251;-34
2022/01/21 09:08:23;;;;;;;12.68;3.05;;;3.20;99.90;;;;;;5075730;27;90452;-30
2022/01/21 09:10:49;;;;;;;6.70;2.88;;;3.20;99.90;;;;;;5075992;27;87617;-33
2022/01/21 09:13:15;;;;;;;10.70;2.72;;;3.20;99.90;;;;;;5048737;27;88557;-30
2022/01/21 09:15:41;;;;;;;9.60;3.63;;;3.30;99.90;;;;;;5054611;27;91042;-36
2022/01/21 09:18:06;;;;;;;6.20;2.80;;;3.30;99.90;;;;;;5055046;27;89267;-31
2022/01/21 09:20:33;;;;;;;8.10;2.95;;;3.30;99.90;;;;;;5054670;27;88333;-32
2022/01/21 09:22:59;;;;;;;14.95;2.97;;;3.30;99.90;;;;;;5054810;27;87496;-32
2022/01/21 09:25:26;;;;;;;5.38;3.08;;;3.30;99.90;;;;;;5054277;27;89957;-34
2022/01/21 09:27:52;;;;;;;11.43;3.15;;;3.30;99.90;;;;;;5053803;27;89744;-32
2022/01/21 09:30:17;;;;;;;15.20;2.92;;;3.40;99.90;;;;;;5054439;27;88851;-32
2022/01/21 09:32:43;;;;;;;12.02;3.35;;;3.40;99.90;;;;;;5054416;27;88324;-32
2022/01/21 09:35:10;;;;;;;12.38;3.22;;;3.40;99.90;;;;;;4988638;27;89974;-32
2022/01/21 09:37:36;;;;;;;9.75;3.08;;;3.40;99.90;;;;;;5053925;27;89649;-32
2022/01/21 09:40:04;;;;;;;15.00;3.30;;;3.40;99.90;;;;;;5055201;27;88632;-31
2022/01/21 09:42:32;;;;;;;10.52;2.45;;;3.50;99.90;;;;;;5053044;27;87672;-34
2022/01/21 09:44:59;;;;;;;13.90;3.38;;;3.50;99.90;;;;;;5054366;27;90560;-31
2022/01/21 09:47:25;;;;;;;15.25;3.95;;;3.50;99.90;;;;;;5052627;27;89604;-32
2022/01/21 09:49:54;;;;;;;7.07;2.80;;;3.50;99.90;;;;;;5056975;27;88124;-32
2022/01/21 09:52:21;;;;;;;6.93;2.83;;;3.50;99.90;;;;;;5056872;27;88389;-31
2022/01/21 09:54:47;;;;;;;8.43;2.78;;;3.50;99.90;;;;;;5057247;27;88847;-32
2022/01/21 09:57:20;;;;;;;15.77;3.28;;;3.50;99.90;;;;;;5056575;27;89366;-31
2022/01/21 09:59:46;;;;;;;13.57;2.63;;;3.50;99.90;;;;;;5056794;27;88280;-31
2022/01/21 10:02:13;;;;;;;11.50;3.85;;;3.50;99.90;;;;;;5056746;27;88569;-33
2022/01/21 10:04:42;;;;;;;10.90;2.90;;;3.60;99.90;;;;;;5056687;27;90278;-31
2022/01/21 10:07:12;;;;;;;10.57;3.38;;;3.60;99.90;;;;;;5056397;27;90761;-29
2022/01/21 10:09:39;;;;;;;7.25;3.17;;;3.60;99.90;;;;;;5056472;27;87628;-30
2022/01/21 10:12:05;;;;;;;22.20;4.50;;;3.70;99.90;;;;;;5056680;27;88735;-30
2022/01/21 10:14:31;;;;;;;11.75;4.03;;;3.70;99.90;;;;;;5056268;27;89708;-31
2022/01/21 10:16:58;;;;;;;15.13;3.70;;;3.70;99.90;;;;;;5056322;27;88362;-33
2022/01/21 10:19:29;;;;;;;13.50;3.20;;;3.70;99.90;;;;;;5055928;27;87644;-33
2022/01/21 10:22:05;;;;;;;11.75;3.53;;;3.80;99.90;;;;;;5056976;27;87457;-31
2022/01/21 10:24:32;;;;;;;19.45;4.28;;;3.80;99.90;;;;;;5056091;27;90254;-31
2022/01/21 10:26:59;;;;;;;13.27;3.45;;;3.80;99.90;;;;;;5056597;27;89999;-29
2022/01/21 10:29:35;;;;;;;20.88;3.78;;;3.90;99.90;;;;;;5038316;27;87528;-34
2022/01/21 10:32:02;;;;;;;7.38;2.78;;;3.90;99.90;;;;;;5056392;27;88767;-30
2022/01/21 10:34:38;;;;;;;9.95;3.63;;;4.00;99.90;;;;;;5055888;27;90291;-31
2022/01/21 10:37:24;;;;;;;11.27;4.32;;;4.00;99.90;;;;;;5056100;27;89617;-32
2022/01/21 10:39:58;;;;;;;17.38;4.40;;;4.10;99.90;;;;;;5056743;27;87572;-30
2022/01/21 10:42:25;;;;;;;23.33;4.40;;;4.10;99.90;;;;;;5056236;27;88658;-31
2022/01/21 10:44:51;;;;;;;11.02;3.30;;;4.20;99.90;;;;;;5055541;27;90571;-32
2022/01/21 10:47:17;;;;;;;13.63;3.92;;;4.20;99.90;;;;;;5056143;27;89781;-33
2022/01/21 10:50:00;;;;;;;12.05;3.55;;;4.20;99.90;;;;;;5055961;27;87854;-32
2022/01/21 10:52:37;;;;;;;10.02;3.88;;;4.30;99.90;;;;;;5056018;27;87865;-30
2022/01/21 10:55:23;;;;;;;11.75;4.38;;;4.30;99.90;;;;;;5056012;27;90050;-31
2022/01/21 10:58:09;;;;;;;12.70;3.95;;;4.40;99.90;;;;;;5056091;27;89501;-33
2022/01/21 11:00:36;;;;;;;14.52;3.90;;;4.40;99.90;;;;;;5054166;27;87606;-31
2022/01/21 11:03:14;;;;;;;12.77;3.35;;;4.40;99.90;;;;;;5055457;27;87605;-30
2022/01/21 11:05:44;;;;;;;16.55;3.28;;;4.50;99.90;;;;;;5055669;27;90084;-32
2022/01/21 11:08:11;;;;;;;12.57;3.42;;;4.40;99.90;;;;;;5055044;27;90162;-31
2022/01/21 11:10:43;;;;;;;11.98;4.00;;;4.50;99.90;;;;;;5055596;27;88015;-32
2022/01/21 11:13:11;;;;;;;13.73;3.55;;;4.50;99.90;;;;;;5056047;27;87876;-30
2022/01/21 11:15:46;;;;;;;6.05;3.05;;;4.50;99.90;;;;;;5055403;27;90691;-30
2022/01/21 11:18:16;;;;;;;19.52;4.47;;;4.50;99.90;;;;;;5055485;27;89873;-32
2022/01/21 11:20:45;;;;;;;7.35;2.35;;;4.50;99.90;;;;;;5055316;27;88316;-31
2022/01/21 11:23:11;;;;;;;9.27;3.50;;;4.50;99.90;;;;;;5055758;27;88099;-32
2022/01/21 11:25:54;;;;;;;9.75;3.40;;;4.50;99.90;;;;;;5055295;27;90500;-33
2022/01/21 11:28:37;;;;;;;16.80;3.60;;;4.60;99.90;;;;;;5055632;27;88311;-30
2022/01/21 11:31:04;;;;;;;14.88;2.95;;;4.70;99.90;;;;;;5055547;27;87518;-31
2022/01/21 11:33:30;;;;;;;11.40;3.40;;;4.70;99.90;;;;;;5055041;27;87671;-32
2022/01/21 11:35:56;;;;;;;19.45;4.03;;;4.80;99.90;;;;;;5037046;27;89349;-30
2022/01/21 11:38:25;;;;;;;14.57;3.90;;;4.80;99.90;;;;;;5054843;27;89495;-37
2022/01/21 11:40:52;;;;;;;12.95;3.47;;;4.80;99.90;;;;;;5055836;27;87918;-31
2022/01/21 11:51:22;;;;;;;13.20;3.92;;;5.00;99.90;;;;;;5034815;28;87640;-31
2022/01/21 11:53:49;;;;;;;10.50;3.28;;;5.10;99.90;;;;;;5033346;28;88781;-32
2022/01/21 11:56:44;;;;;;;8.75;3.58;;;5.20;99.90;;;;;;5035242;28;90187;-30
2022/01/21 12:02:15;;;;;;;15.45;4.05;;;5.40;99.90;;;;;;5035451;28;89099;-31
2022/01/21 12:04:46;;;;;;;11.13;3.88;;;5.50;99.90;;;;;;5034418;28;87484;-31
2022/01/21 12:07:40;;;;;;;18.88;3.00;;;5.50;99.90;;;;;;5035178;28;90220;-31
2022/01/21 12:10:29;;;;;;;8.27;3.70;;;5.50;99.90;;;;;;5038073;28;89709;-31
2022/01/21 12:13:09;;;;;;;19.85;3.70;;;5.50;99.90;;;;;;5038438;28;88160;-31
2022/01/21 12:18:52;;;;;;;24.50;5.32;;;5.50;99.90;;;;;;5038325;28;91137;-32
2022/01/21 12:21:25;;;;;;;;;;;5.50;99.90;;;;;;5038703;28;90339;-30
2022/01/21 12:23:52;;;;;;;16.77;5.85;;;5.50;99.90;;;;;;5039042;28;87522;-33
2022/01/21 12:26:19;;;;;;;9.48;3.45;;;5.50;99.90;;;;;;5038207;28;87557;-32
2022/01/21 12:28:57;;;;;;;6.57;3.67;;;5.50;99.90;;;;;;5037287;28;90318;-33
2022/01/21 12:31:49;;;;;;;6.97;3.80;;;5.60;99.90;;;;;;5038244;28;90017;-32
2022/01/21 12:34:16;;;;;;;14.40;4.85;;;5.60;99.90;;;;;;5037957;28;87962;-30
2022/01/21 12:36:53;;;;;;;13.70;3.80;;;5.70;99.90;;;;;;5037926;28;87593;-31
2022/01/21 12:39:44;;;;;;;17.50;4.68;;;5.70;99.90;;;;;;5038456;28;89143;-29
2022/01/21 12:42:25;;;;;;;27.52;4.68;;;5.80;99.90;;;;;;5019971;28;89587;-30
2022/01/21 12:45:17;;;;;;;17.23;4.38;;;5.80;99.90;;;;;;5016591;28;88299;-34
2022/01/21 12:47:44;;;;;;;17.90;4.82;;;5.90;99.90;;;;;;5016842;28;87637;-30
2022/01/21 12:50:35;;;;;;;11.48;3.45;;;5.90;99.90;;;;;;5017346;28;90300;-30
2022/01/21 12:58:16;;;;;;;15.85;4.38;;;6.00;99.90;;;;;;5017500;28;88029;-32
2022/01/21 13:00:43;;;;;;;13.57;4.45;;;6.00;99.90;;;;;;5016951;28;89526;-31
2022/01/21 13:03:20;;;;;;;17.98;4.63;;;6.00;99.90;;;;;;5016940;28;89466;-32
2022/01/21 13:06:04;;;;;;;11.75;4.28;;;6.10;99.90;;;;;;5017750;28;88105;-31
2022/01/21 13:08:39;;;;;;;16.63;4.05;;;6.10;99.90;;;;;;5017226;28;87652;-31
2022/01/21 13:11:16;;;;;;;28.63;4.13;;;6.10;99.90;;;;;;5017038;28;89989;-32
2022/01/21 13:13:51;;;;;;;26.23;4.53;;;6.10;99.90;;;;;;5016796;28;89322;-32
2022/01/21 13:16:29;;;;;;;14.18;4.55;;;6.20;99.90;;;;;;5017393;28;87582;-33
2022/01/21 13:19:07;;;;;;;13.80;3.83;;;6.20;99.90;;;;;;5017407;28;87530;-30
2022/01/21 13:21:34;;;;;;;;;;;6.20;99.90;;;;;;5017193;28;89217;-33
2022/01/21 13:24:02;;;;;;;7.80;3.08;;;6.30;99.90;;;;;;5018260;28;89866;-30
2022/01/21 13:26:31;;;;;;;8.55;2.95;;;6.30;99.90;;;;;;5017139;28;88683;-35
2022/01/21 13:29:02;;;;;;;7.38;3.25;;;6.30;99.90;;;;;;5017340;28;87793;-33
2022/01/21 13:31:31;;;;;;;5.13;2.70;;;6.40;99.90;;;;;;5016632;28;91126;-34
2022/01/21 13:34:28;;;;;;;18.15;4.30;;;6.40;99.90;;;;;;5017228;28;88774;-34
2022/01/21 13:36:56;;;;;;;10.18;3.22;;;6.40;99.90;;;;;;5016203;28;87641;-31
2022/01/21 13:39:25;;;;;;;11.20;2.53;;;6.50;99.90;;;;;;5016845;28;87671;-30
2022/01/21 13:41:59;;;;;;;10.40;2.95;;;6.50;99.90;;;;;;5016449;28;90564;-31
2022/01/21 13:44:29;;;;;;;10.35;2.88;;;6.50;99.90;;;;;;5023834;28;87848;-34
2022/01/21 13:46:57;;;;;;;7.43;3.55;;;6.50;99.90;;;;;;5036642;28;88094;-32
2022/01/21 13:49:23;;;;;;;4.82;3.05;;;6.50;99.90;;;;;;5037115;28;87875;-30
2022/01/21 13:52:07;;;;;;;13.95;2.88;;;6.50;99.90;;;;;;5036212;28;90519;-31
2022/01/21 13:54:37;;;;;;;15.82;3.90;;;6.60;99.90;;;;;;5036261;28;89445;-33
2022/01/21 13:57:04;;;;;;;6.45;2.33;;;6.50;99.90;;;;;;5037126;28;88475;-33
2022/01/21 13:59:31;;;;;;;14.93;3.37;;;6.50;99.90;;;;;;5036261;28;87948;-31
2022/01/21 14:02:09;;;;;;;10.23;3.38;;;6.50;99.90;;;;;;5036205;28;90257;-32
2022/01/21 14:04:35;;;;;;;13.70;4.35;;;6.60;99.90;;;;;;5036191;28;89584;-29
2022/01/21 14:07:01;;;;;;;10.10;2.67;;;6.60;99.90;;;;;;5036166;28;87772;-33
2022/01/21 14:09:27;;;;;;;5.43;2.83;;;6.60;99.90;;;;;;5036450;28;87506;-32